Terminal Aerodrome Forecast
Issued by NWS

Home | Current Version | Previous Version | Text Only | Print | Product List | Glossary On
Versions: 1 2 3 4 5 6 7 8 9 10 11 12 13
000
FTUS43 KGRB 301100
TAFMTW
TAF
KMTW 301120Z 3012/0112 01008G14KT P6SM OVC008
     FM301800 02008KT P6SM SCT010 BKN015
     FM302300 07005KT P6SM SCT015 SCT025
     FM010400 VRB03KT 5SM BR BKN015=

USA.gov is the U.S. government's official web portal to all federal, state and local government web resources and services.